WEATHER/FLIGHT PLANNING

Hattiesburg Radar

 

 

 

 

Weather Links

Flight Planning Links

 

METAR

2014/10/31 10:53 KHBG 311053Z AUTO 00000KT 10SM SCT080 06/05 A3002 RMK AO2 SLP166 T00610050

TAF

2014/10/31 06:27 TAF KHBG 310525Z 3106/0106 00000KT P6SM SKC FM311400 32007KT P6SM SKC FM311800 33015G25KT P6SM SCT040 FM010200 34009KT P6SM SKC